sensor_id;sensor_type;location;lat;lon;timestamp;temperature;humidity
34815;DHT22;21030;53.912;15.214;2023-11-21T00:01:17;30.00;23.40
34815;DHT22;21030;53.912;15.214;2023-11-21T00:03:44;30.40;23.50
34815;DHT22;21030;53.912;15.214;2023-11-21T00:06:11;30.10;23.40
34815;DHT22;21030;53.912;15.214;2023-11-21T00:08:38;29.60;23.80
34815;DHT22;21030;53.912;15.214;2023-11-21T00:11:05;29.60;24.00
34815;DHT22;21030;53.912;15.214;2023-11-21T00:13:33;30.00;23.60
34815;DHT22;21030;53.912;15.214;2023-11-21T00:16:00;30.80;23.30
34815;DHT22;21030;53.912;15.214;2023-11-21T00:18:27;31.00;23.10
34815;DHT22;21030;53.912;15.214;2023-11-21T00:20:55;31.50;22.90
34815;DHT22;21030;53.912;15.214;2023-11-21T00:23:22;31.60;22.70
34815;DHT22;21030;53.912;15.214;2023-11-21T00:25:49;31.00;22.50
34815;DHT22;21030;53.912;15.214;2023-11-21T00:28:16;30.50;22.80
34815;DHT22;21030;53.912;15.214;2023-11-21T00:30:43;29.40;23.40
34815;DHT22;21030;53.912;15.214;2023-11-21T00:33:10;28.00;23.80
34815;DHT22;21030;53.912;15.214;2023-11-21T00:35:37;28.90;24.30
34815;DHT22;21030;53.912;15.214;2023-11-21T00:38:04;28.40;24.00
34815;DHT22;21030;53.912;15.214;2023-11-21T00:40:32;28.00;24.60
34815;DHT22;21030;53.912;15.214;2023-11-21T00:42:58;27.90;25.00
34815;DHT22;21030;53.912;15.214;2023-11-21T00:45:28;29.10;24.60
34815;DHT22;21030;53.912;15.214;2023-11-21T00:47:55;29.60;24.20
34815;DHT22;21030;53.912;15.214;2023-11-21T00:50:23;29.30;23.80
34815;DHT22;21030;53.912;15.214;2023-11-21T00:52:50;30.20;23.60
34815;DHT22;21030;53.912;15.214;2023-11-21T00:55:19;29.20;23.70
34815;DHT22;21030;53.912;15.214;2023-11-21T00:57:48;28.70;23.80
34815;DHT22;21030;53.912;15.214;2023-11-21T01:00:15;28.50;23.80
34815;DHT22;21030;53.912;15.214;2023-11-21T01:02:45;27.70;24.60
34815;DHT22;21030;53.912;15.214;2023-11-21T01:05:12;26.60;25.40
34815;DHT22;21030;53.912;15.214;2023-11-21T01:07:40;27.30;25.40
34815;DHT22;21030;53.912;15.214;2023-11-21T01:10:07;27.40;25.20
34815;DHT22;21030;53.912;15.214;2023-11-21T01:12:35;28.20;24.50
34815;DHT22;21030;53.912;15.214;2023-11-21T01:15:05;27.80;24.50
34815;DHT22;21030;53.912;15.214;2023-11-21T01:17:35;27.90;24.30
34815;DHT22;21030;53.912;15.214;2023-11-21T01:20:03;27.00;24.60
34815;DHT22;21030;53.912;15.214;2023-11-21T01:22:33;26.90;25.30
34815;DHT22;21030;53.912;15.214;2023-11-21T01:25:00;28.00;24.70
34815;DHT22;21030;53.912;15.214;2023-11-21T01:27:27;27.50;24.90
34815;DHT22;21030;53.912;15.214;2023-11-21T01:29:54;28.50;24.80
34815;DHT22;21030;53.912;15.214;2023-11-21T01:32:21;28.20;24.90
34815;DHT22;21030;53.912;15.214;2023-11-21T01:34:50;28.50;24.50
34815;DHT22;21030;53.912;15.214;2023-11-21T01:37:17;28.90;24.30
34815;DHT22;21030;53.912;15.214;2023-11-21T01:39:44;29.40;23.80
34815;DHT22;21030;53.912;15.214;2023-11-21T01:42:11;29.00;23.60
34815;DHT22;21030;53.912;15.214;2023-11-21T01:44:40;27.80;23.70
34815;DHT22;21030;53.912;15.214;2023-11-21T01:47:08;28.50;24.60
34815;DHT22;21030;53.912;15.214;2023-11-21T01:49:36;27.10;24.10
34815;DHT22;21030;53.912;15.214;2023-11-21T01:52:05;26.90;24.60
34815;DHT22;21030;53.912;15.214;2023-11-21T01:54:32;26.20;25.10
34815;DHT22;21030;53.912;15.214;2023-11-21T01:57:00;27.20;25.80
34815;DHT22;21030;53.912;15.214;2023-11-21T01:59:37;27.10;25.10
34815;DHT22;21030;53.912;15.214;2023-11-21T02:02:05;26.00;25.20
34815;DHT22;21030;53.912;15.214;2023-11-21T02:04:33;25.90;25.20
34815;DHT22;21030;53.912;15.214;2023-11-21T02:07:01;26.90;25.50
34815;DHT22;21030;53.912;15.214;2023-11-21T02:09:28;28.30;24.70
34815;DHT22;21030;53.912;15.214;2023-11-21T02:12:00;27.70;24.40
34815;DHT22;21030;53.912;15.214;2023-11-21T02:14:28;27.80;24.40
34815;DHT22;21030;53.912;15.214;2023-11-21T02:16:56;28.50;24.40
34815;DHT22;21030;53.912;15.214;2023-11-21T02:19:24;29.20;23.60
34815;DHT22;21030;53.912;15.214;2023-11-21T02:21:57;28.30;23.70
34815;DHT22;21030;53.912;15.214;2023-11-21T02:24:30;26.90;24.10
34815;DHT22;21030;53.912;15.214;2023-11-21T02:26:57;28.70;24.30
34815;DHT22;21030;53.912;15.214;2023-11-21T02:29:24;29.20;24.00
34815;DHT22;21030;53.912;15.214;2023-11-21T02:31:55;28.70;23.60
34815;DHT22;21030;53.912;15.214;2023-11-21T02:34:23;29.60;23.40
34815;DHT22;21030;53.912;15.214;2023-11-21T02:36:52;28.30;23.40
34815;DHT22;21030;53.912;15.214;2023-11-21T02:39:21;28.80;23.80
34815;DHT22;21030;53.912;15.214;2023-11-21T02:41:49;28.80;23.40
34815;DHT22;21030;53.912;15.214;2023-11-21T02:44:17;29.20;23.20
34815;DHT22;21030;53.912;15.214;2023-11-21T02:46:44;27.70;23.20
34815;DHT22;21030;53.912;15.214;2023-11-21T02:49:11;27.10;23.80
34815;DHT22;21030;53.912;15.214;2023-11-21T02:51:38;28.40;24.20
34815;DHT22;21030;53.912;15.214;2023-11-21T02:54:06;27.50;23.90
34815;DHT22;21030;53.912;15.214;2023-11-21T02:56:35;26.00;24.70
34815;DHT22;21030;53.912;15.214;2023-11-21T02:59:02;26.00;24.90
34815;DHT22;21030;53.912;15.214;2023-11-21T03:01:29;27.00;25.40
34815;DHT22;21030;53.912;15.214;2023-11-21T03:03:56;26.40;25.00
34815;DHT22;21030;53.912;15.214;2023-11-21T03:06:23;25.60;25.70
34815;DHT22;21030;53.912;15.214;2023-11-21T03:08:51;26.10;25.90
34815;DHT22;21030;53.912;15.214;2023-11-21T03:11:18;27.00;25.40
34815;DHT22;21030;53.912;15.214;2023-11-21T03:13:45;26.90;25.20
34815;DHT22;21030;53.912;15.214;2023-11-21T03:16:14;27.80;24.60
34815;DHT22;21030;53.912;15.214;2023-11-21T03:18:41;29.00;23.90
34815;DHT22;21030;53.912;15.214;2023-11-21T03:21:08;29.60;23.30
34815;DHT22;21030;53.912;15.214;2023-11-21T03:23:38;29.30;23.20
34815;DHT22;21030;53.912;15.214;2023-11-21T03:26:06;29.90;23.30
34815;DHT22;21030;53.912;15.214;2023-11-21T03:28:38;29.90;23.10
34815;DHT22;21030;53.912;15.214;2023-11-21T03:31:05;30.70;22.80
34815;DHT22;21030;53.912;15.214;2023-11-21T03:33:33;30.20;22.60
34815;DHT22;21030;53.912;15.214;2023-11-21T03:36:01;28.90;23.30
34815;DHT22;21030;53.912;15.214;2023-11-21T03:38:29;27.20;23.40
34815;DHT22;21030;53.912;15.214;2023-11-21T03:40:56;27.90;23.70
34815;DHT22;21030;53.912;15.214;2023-11-21T03:43:23;26.90;23.40
34815;DHT22;21030;53.912;15.214;2023-11-21T03:45:52;26.20;24.80
34815;DHT22;21030;53.912;15.214;2023-11-21T03:48:19;25.60;25.30
34815;DHT22;21030;53.912;15.214;2023-11-21T03:50:46;26.50;25.60
34815;DHT22;21030;53.912;15.214;2023-11-21T03:53:14;28.00;24.40
34815;DHT22;21030;53.912;15.214;2023-11-21T03:55:41;28.80;23.60
34815;DHT22;21030;53.912;15.214;2023-11-21T03:58:08;28.60;22.70
34815;DHT22;21030;53.912;15.214;2023-11-21T04:00:35;28.70;23.10
34815;DHT22;21030;53.912;15.214;2023-11-21T04:03:02;29.70;23.10
34815;DHT22;21030;53.912;15.214;2023-11-21T04:05:30;29.50;22.50
34815;DHT22;21030;53.912;15.214;2023-11-21T04:07:57;30.00;22.80
34815;DHT22;21030;53.912;15.214;2023-11-21T04:10:25;29.50;22.50
34815;DHT22;21030;53.912;15.214;2023-11-21T04:12:52;28.40;23.50
34815;DHT22;21030;53.912;15.214;2023-11-21T04:15:19;28.00;24.20
34815;DHT22;21030;53.912;15.214;2023-11-21T04:17:46;28.00;24.00
34815;DHT22;21030;53.912;15.214;2023-11-21T04:20:13;28.90;23.70
34815;DHT22;21030;53.912;15.214;2023-11-21T04:22:40;28.30;23.20
34815;DHT22;21030;53.912;15.214;2023-11-21T04:25:13;28.70;23.60
34815;DHT22;21030;53.912;15.214;2023-11-21T04:27:41;27.50;23.60
34815;DHT22;21030;53.912;15.214;2023-11-21T04:30:11;26.40;25.00
34815;DHT22;21030;53.912;15.214;2023-11-21T04:32:39;28.20;24.30
34815;DHT22;21030;53.912;15.214;2023-11-21T04:35:06;29.40;23.50
34815;DHT22;21030;53.912;15.214;2023-11-21T04:37:35;30.10;22.90
34815;DHT22;21030;53.912;15.214;2023-11-21T04:40:03;30.50;22.50
34815;DHT22;21030;53.912;15.214;2023-11-21T04:42:36;30.70;22.20
34815;DHT22;21030;53.912;15.214;2023-11-21T04:45:05;29.30;22.40
34815;DHT22;21030;53.912;15.214;2023-11-21T04:47:36;28.60;22.60
34815;DHT22;21030;53.912;15.214;2023-11-21T04:50:04;28.80;23.10
34815;DHT22;21030;53.912;15.214;2023-11-21T04:52:32;28.90;23.30
34815;DHT22;21030;53.912;15.214;2023-11-21T04:55:00;29.00;23.00
34815;DHT22;21030;53.912;15.214;2023-11-21T04:57:28;26.80;22.80
34815;DHT22;21030;53.912;15.214;2023-11-21T04:59:55;28.00;23.90
34815;DHT22;21030;53.912;15.214;2023-11-21T05:02:23;29.20;23.30
34815;DHT22;21030;53.912;15.214;2023-11-21T05:05:02;28.50;23.20
34815;DHT22;21030;53.912;15.214;2023-11-21T05:07:29;29.00;23.10
34815;DHT22;21030;53.912;15.214;2023-11-21T05:09:58;28.70;23.40
34815;DHT22;21030;53.912;15.214;2023-11-21T05:12:26;28.70;22.80
34815;DHT22;21030;53.912;15.214;2023-11-21T05:14:53;29.00;23.00
34815;DHT22;21030;53.912;15.214;2023-11-21T05:17:20;28.60;23.00
34815;DHT22;21030;53.912;15.214;2023-11-21T05:19:47;29.50;22.60
34815;DHT22;21030;53.912;15.214;2023-11-21T05:22:16;30.20;22.20
34815;DHT22;21030;53.912;15.214;2023-11-21T05:24:43;30.00;21.60
34815;DHT22;21030;53.912;15.214;2023-11-21T05:27:10;28.60;21.80
34815;DHT22;21030;53.912;15.214;2023-11-21T05:29:37;27.90;23.00
34815;DHT22;21030;53.912;15.214;2023-11-21T05:32:04;28.60;23.00
34815;DHT22;21030;53.912;15.214;2023-11-21T05:34:32;26.90;23.40
34815;DHT22;21030;53.912;15.214;2023-11-21T05:36:59;28.40;23.10
34815;DHT22;21030;53.912;15.214;2023-11-21T05:39:26;28.10;22.80
34815;DHT22;21030;53.912;15.214;2023-11-21T05:41:54;27.70;23.00
34815;DHT22;21030;53.912;15.214;2023-11-21T05:44:22;27.70;22.90
34815;DHT22;21030;53.912;15.214;2023-11-21T05:46:51;27.30;22.50
34815;DHT22;21030;53.912;15.214;2023-11-21T05:49:19;27.20;23.40
34815;DHT22;21030;53.912;15.214;2023-11-21T05:51:48;25.70;23.30
34815;DHT22;21030;53.912;15.214;2023-11-21T05:54:15;25.60;25.00
34815;DHT22;21030;53.912;15.214;2023-11-21T05:56:43;27.00;24.20
34815;DHT22;21030;53.912;15.214;2023-11-21T05:59:10;26.40;24.30
34815;DHT22;21030;53.912;15.214;2023-11-21T06:01:37;27.30;23.40
34815;DHT22;21030;53.912;15.214;2023-11-21T06:04:05;26.90;24.00
34815;DHT22;21030;53.912;15.214;2023-11-21T06:06:35;28.50;23.10
34815;DHT22;21030;53.912;15.214;2023-11-21T06:09:02;27.50;22.40
34815;DHT22;21030;53.912;15.214;2023-11-21T06:11:30;27.10;23.00
34815;DHT22;21030;53.912;15.214;2023-11-21T06:13:57;27.10;23.10
34815;DHT22;21030;53.912;15.214;2023-11-21T06:16:25;26.80;23.00
34815;DHT22;21030;53.912;15.214;2023-11-21T06:18:52;26.50;23.00
34815;DHT22;21030;53.912;15.214;2023-11-21T06:21:19;26.80;23.60
34815;DHT22;21030;53.912;15.214;2023-11-21T06:23:46;26.40;23.00
34815;DHT22;21030;53.912;15.214;2023-11-21T06:26:15;25.50;23.40
34815;DHT22;21030;53.912;15.214;2023-11-21T06:28:42;25.60;24.20
34815;DHT22;21030;53.912;15.214;2023-11-21T06:31:09;25.70;24.00
34815;DHT22;21030;53.912;15.214;2023-11-21T06:33:37;25.50;23.90
34815;DHT22;21030;53.912;15.214;2023-11-21T06:36:05;26.30;24.00
34815;DHT22;21030;53.912;15.214;2023-11-21T06:38:33;27.30;22.80
34815;DHT22;21030;53.912;15.214;2023-11-21T06:41:00;26.60;22.20
34815;DHT22;21030;53.912;15.214;2023-11-21T06:43:31;26.70;22.70
34815;DHT22;21030;53.912;15.214;2023-11-21T06:45:58;27.40;22.40
34815;DHT22;21030;53.912;15.214;2023-11-21T06:48:25;25.10;22.50
34815;DHT22;21030;53.912;15.214;2023-11-21T06:50:52;24.70;23.60
34815;DHT22;21030;53.912;15.214;2023-11-21T06:53:20;24.90;23.30
34815;DHT22;21030;53.912;15.214;2023-11-21T06:55:46;25.00;23.20
34815;DHT22;21030;53.912;15.214;2023-11-21T06:58:14;25.00;23.50
34815;DHT22;21030;53.912;15.214;2023-11-21T07:00:41;25.70;23.20
34815;DHT22;21030;53.912;15.214;2023-11-21T07:03:13;25.10;22.50
34815;DHT22;21030;53.912;15.214;2023-11-21T07:05:40;25.70;22.50
34815;DHT22;21030;53.912;15.214;2023-11-21T07:08:07;24.50;23.10
34815;DHT22;21030;53.912;15.214;2023-11-21T07:10:35;23.80;23.40
34815;DHT22;21030;53.912;15.214;2023-11-21T07:13:03;23.20;23.80
34815;DHT22;21030;53.912;15.214;2023-11-21T07:15:30;25.30;23.60
34815;DHT22;21030;53.912;15.214;2023-11-21T07:17:57;24.50;22.60
34815;DHT22;21030;53.912;15.214;2023-11-21T07:20:25;23.10;23.00
34815;DHT22;21030;53.912;15.214;2023-11-21T07:22:55;21.80;24.30
34815;DHT22;21030;53.912;15.214;2023-11-21T07:25:22;23.20;24.60
34815;DHT22;21030;53.912;15.214;2023-11-21T07:27:49;22.50;24.10
34815;DHT22;21030;53.912;15.214;2023-11-21T07:30:17;22.00;25.20
34815;DHT22;21030;53.912;15.214;2023-11-21T07:32:44;22.00;24.90
34815;DHT22;21030;53.912;15.214;2023-11-21T07:35:11;23.60;24.50
34815;DHT22;21030;53.912;15.214;2023-11-21T07:37:39;23.40;24.60
34815;DHT22;21030;53.912;15.214;2023-11-21T07:40:07;24.60;23.50
34815;DHT22;21030;53.912;15.214;2023-11-21T07:42:35;25.10;22.40
34815;DHT22;21030;53.912;15.214;2023-11-21T07:45:04;24.30;22.40
34815;DHT22;21030;53.912;15.214;2023-11-21T07:47:31;25.10;22.00
34815;DHT22;21030;53.912;15.214;2023-11-21T07:50:05;24.70;22.40
34815;DHT22;21030;53.912;15.214;2023-11-21T07:52:34;25.70;22.50
34815;DHT22;21030;53.912;15.214;2023-11-21T07:55:01;25.10;21.60
34815;DHT22;21030;53.912;15.214;2023-11-21T07:57:29;25.00;22.60
34815;DHT22;21030;53.912;15.214;2023-11-21T07:59:56;25.60;21.50
34815;DHT22;21030;53.912;15.214;2023-11-21T08:02:23;24.80;21.70
34815;DHT22;21030;53.912;15.214;2023-11-21T08:04:51;25.90;22.00
34815;DHT22;21030;53.912;15.214;2023-11-21T08:07:18;25.20;22.10
34815;DHT22;21030;53.912;15.214;2023-11-21T08:09:45;25.80;22.40
34815;DHT22;21030;53.912;15.214;2023-11-21T08:12:14;26.40;22.00
34815;DHT22;21030;53.912;15.214;2023-11-21T08:14:42;25.30;21.70
34815;DHT22;21030;53.912;15.214;2023-11-21T08:17:09;23.70;22.40
34815;DHT22;21030;53.912;15.214;2023-11-21T08:19:37;24.60;22.70
34815;DHT22;21030;53.912;15.214;2023-11-21T08:22:04;25.00;21.60
34815;DHT22;21030;53.912;15.214;2023-11-21T08:24:34;24.50;21.70
34815;DHT22;21030;53.912;15.214;2023-11-21T08:27:01;24.00;22.40
34815;DHT22;21030;53.912;15.214;2023-11-21T08:29:28;25.00;22.30
34815;DHT22;21030;53.912;15.214;2023-11-21T08:31:55;26.00;21.50
34815;DHT22;21030;53.912;15.214;2023-11-21T08:34:25;26.30;21.40
34815;DHT22;21030;53.912;15.214;2023-11-21T08:36:52;25.50;20.90
34815;DHT22;21030;53.912;15.214;2023-11-21T08:39:19;25.80;21.20
34815;DHT22;21030;53.912;15.214;2023-11-21T08:41:46;25.70;21.20
34815;DHT22;21030;53.912;15.214;2023-11-21T08:44:13;26.30;21.70
34815;DHT22;21030;53.912;15.214;2023-11-21T08:46:40;27.60;20.90
34815;DHT22;21030;53.912;15.214;2023-11-21T08:49:08;26.80;20.60
34815;DHT22;21030;53.912;15.214;2023-11-21T08:51:35;25.10;20.90
34815;DHT22;21030;53.912;15.214;2023-11-21T08:54:03;25.40;21.80
34815;DHT22;21030;53.912;15.214;2023-11-21T08:56:31;27.50;21.40
34815;DHT22;21030;53.912;15.214;2023-11-21T08:58:58;27.90;20.40
34815;DHT22;21030;53.912;15.214;2023-11-21T09:01:31;28.50;20.10
34815;DHT22;21030;53.912;15.214;2023-11-21T09:03:59;29.90;20.00
34815;DHT22;21030;53.912;15.214;2023-11-21T09:06:27;30.40;19.20
34815;DHT22;21030;53.912;15.214;2023-11-21T09:08:55;30.20;19.20
34815;DHT22;21030;53.912;15.214;2023-11-21T09:11:22;31.20;19.20
34815;DHT22;21030;53.912;15.214;2023-11-21T09:13:52;31.90;19.20
34815;DHT22;21030;53.912;15.214;2023-11-21T09:16:19;32.90;18.80
34815;DHT22;21030;53.912;15.214;2023-11-21T09:18:46;31.90;18.60
34815;DHT22;21030;53.912;15.214;2023-11-21T09:21:13;32.00;18.40
34815;DHT22;21030;53.912;15.214;2023-11-21T09:23:42;31.90;17.80
34815;DHT22;21030;53.912;15.214;2023-11-21T09:26:09;32.40;18.00
34815;DHT22;21030;53.912;15.214;2023-11-21T09:28:37;31.70;17.60
34815;DHT22;21030;53.912;15.214;2023-11-21T09:31:06;32.40;18.30
34815;DHT22;21030;53.912;15.214;2023-11-21T09:33:35;34.20;17.70
34815;DHT22;21030;53.912;15.214;2023-11-21T09:36:02;32.50;17.10
34815;DHT22;21030;53.912;15.214;2023-11-21T09:38:31;32.70;17.40
34815;DHT22;21030;53.912;15.214;2023-11-21T09:40:59;32.20;17.60
34815;DHT22;21030;53.912;15.214;2023-11-21T09:43:28;33.40;17.50
34815;DHT22;21030;53.912;15.214;2023-11-21T09:46:02;32.10;16.80
34815;DHT22;21030;53.912;15.214;2023-11-21T09:48:36;32.30;17.80
34815;DHT22;21030;53.912;15.214;2023-11-21T09:51:06;32.20;17.40
34815;DHT22;21030;53.912;15.214;2023-11-21T09:53:35;32.10;17.60
34815;DHT22;21030;53.912;15.214;2023-11-21T09:56:03;31.80;17.40
34815;DHT22;21030;53.912;15.214;2023-11-21T09:58:32;29.20;17.10
34815;DHT22;21030;53.912;15.214;2023-11-21T10:01:01;29.40;18.10
34815;DHT22;21030;53.912;15.214;2023-11-21T10:03:30;30.60;19.20
34815;DHT22;21030;53.912;15.214;2023-11-21T10:05:58;29.80;18.20
34815;DHT22;21030;53.912;15.214;2023-11-21T10:08:28;28.80;18.80
34815;DHT22;21030;53.912;15.214;2023-11-21T10:11:15;27.10;18.80
34815;DHT22;21030;53.912;15.214;2023-11-21T10:13:45;26.80;19.90
34815;DHT22;21030;53.912;15.214;2023-11-21T10:16:16;27.30;20.00
34815;DHT22;21030;53.912;15.214;2023-11-21T10:18:51;27.80;19.40
34815;DHT22;21030;53.912;15.214;2023-11-21T10:21:19;27.10;19.30
34815;DHT22;21030;53.912;15.214;2023-11-21T10:23:47;26.50;19.90
34815;DHT22;21030;53.912;15.214;2023-11-21T10:26:14;25.50;20.30
34815;DHT22;21030;53.912;15.214;2023-11-21T10:29:01;26.60;20.20
34815;DHT22;21030;53.912;15.214;2023-11-21T10:31:32;24.10;21.10
34815;DHT22;21030;53.912;15.214;2023-11-21T10:34:20;24.80;21.90
34815;DHT22;21030;53.912;15.214;2023-11-21T10:36:47;25.90;21.10
34815;DHT22;21030;53.912;15.214;2023-11-21T10:39:19;27.20;20.80
34815;DHT22;21030;53.912;15.214;2023-11-21T10:41:47;28.30;20.30
34815;DHT22;21030;53.912;15.214;2023-11-21T10:44:16;29.20;19.70
34815;DHT22;21030;53.912;15.214;2023-11-21T10:46:54;29.70;19.10
34815;DHT22;21030;53.912;15.214;2023-11-21T10:49:26;31.40;18.60
34815;DHT22;21030;53.912;15.214;2023-11-21T10:51:55;31.10;17.90
34815;DHT22;21030;53.912;15.214;2023-11-21T10:54:24;30.10;17.60
34815;DHT22;21030;53.912;15.214;2023-11-21T10:57:01;27.70;18.00
34815;DHT22;21030;53.912;15.214;2023-11-21T10:59:30;24.60;19.60
34815;DHT22;21030;53.912;15.214;2023-11-21T11:02:01;25.00;21.60
34815;DHT22;21030;53.912;15.214;2023-11-21T11:04:31;27.80;20.90
34815;DHT22;21030;53.912;15.214;2023-11-21T11:07:02;26.00;19.90
34815;DHT22;21030;53.912;15.214;2023-11-21T11:09:32;26.00;20.30
34815;DHT22;21030;53.912;15.214;2023-11-21T11:12:04;24.50;21.20
34815;DHT22;21030;53.912;15.214;2023-11-21T11:14:32;24.60;21.30
34815;DHT22;21030;53.912;15.214;2023-11-21T11:16:59;26.60;21.30
34815;DHT22;21030;53.912;15.214;2023-11-21T11:19:28;26.90;20.20
34815;DHT22;21030;53.912;15.214;2023-11-21T11:22:29;27.10;19.90
34815;DHT22;21030;53.912;15.214;2023-11-21T11:33:29;23.60;22.20
34815;DHT22;21030;53.912;15.214;2023-11-21T11:36:06;23.80;22.20
34815;DHT22;21030;53.912;15.214;2023-11-21T11:38:38;24.60;21.90
34815;DHT22;21030;53.912;15.214;2023-11-21T11:41:06;25.90;21.20
34815;DHT22;21030;53.912;15.214;2023-11-21T11:43:34;27.10;20.10
34815;DHT22;21030;53.912;15.214;2023-11-21T11:46:11;27.10;19.80
34815;DHT22;21030;53.912;15.214;2023-11-21T11:48:44;26.50;19.60
34815;DHT22;21030;53.912;15.214;2023-11-21T11:51:13;27.30;20.00
34815;DHT22;21030;53.912;15.214;2023-11-21T11:53:42;28.60;19.70
34815;DHT22;21030;53.912;15.214;2023-11-21T11:56:25;29.60;19.30
34815;DHT22;21030;53.912;15.214;2023-11-21T11:59:00;28.50;18.30
34815;DHT22;21030;53.912;15.214;2023-11-21T12:01:32;29.30;19.00
34815;DHT22;21030;53.912;15.214;2023-11-21T12:06:46;29.70;18.70
34815;DHT22;21030;53.912;15.214;2023-11-21T12:09:20;29.10;18.60
34815;DHT22;21030;53.912;15.214;2023-11-21T12:11:51;29.10;18.50
34815;DHT22;21030;53.912;15.214;2023-11-21T12:14:18;28.80;18.70
34815;DHT22;21030;53.912;15.214;2023-11-21T12:16:47;27.30;18.10
34815;DHT22;21030;53.912;15.214;2023-11-21T12:19:15;26.50;18.60
34815;DHT22;21030;53.912;15.214;2023-11-21T12:21:42;24.70;19.70
34815;DHT22;21030;53.912;15.214;2023-11-21T12:24:10;22.50;21.10
34815;DHT22;21030;53.912;15.214;2023-11-21T12:26:41;21.00;23.10
34815;DHT22;21030;53.912;15.214;2023-11-21T12:29:10;21.50;23.70
34815;DHT22;21030;53.912;15.214;2023-11-21T12:31:38;22.10;23.10
34815;DHT22;21030;53.912;15.214;2023-11-21T12:34:06;22.30;22.70
34815;DHT22;21030;53.912;15.214;2023-11-21T12:36:34;23.60;22.20
34815;DHT22;21030;53.912;15.214;2023-11-21T12:39:02;25.00;21.70
34815;DHT22;21030;53.912;15.214;2023-11-21T12:41:30;25.50;20.70
34815;DHT22;21030;53.912;15.214;2023-11-21T12:43:57;24.20;20.60
34815;DHT22;21030;53.912;15.214;2023-11-21T12:46:25;22.80;21.60
34815;DHT22;21030;53.912;15.214;2023-11-21T12:48:57;22.60;22.30
34815;DHT22;21030;53.912;15.214;2023-11-21T12:51:25;22.80;22.70
34815;DHT22;21030;53.912;15.214;2023-11-21T12:53:52;23.20;22.90
34815;DHT22;21030;53.912;15.214;2023-11-21T12:56:21;26.60;21.50
34815;DHT22;21030;53.912;15.214;2023-11-21T12:58:53;25.80;20.00
34815;DHT22;21030;53.912;15.214;2023-11-21T13:01:25;25.70;20.10
34815;DHT22;21030;53.912;15.214;2023-11-21T13:04:00;25.70;20.80
34815;DHT22;21030;53.912;15.214;2023-11-21T13:06:29;27.20;20.60
34815;DHT22;21030;53.912;15.214;2023-11-21T13:09:01;28.30;19.70
34815;DHT22;21030;53.912;15.214;2023-11-21T13:11:29;28.60;19.30
34815;DHT22;21030;53.912;15.214;2023-11-21T13:13:59;27.40;18.70
34815;DHT22;21030;53.912;15.214;2023-11-21T13:16:27;28.10;19.70
34815;DHT22;21030;53.912;15.214;2023-11-21T13:18:54;26.40;19.00
34815;DHT22;21030;53.912;15.214;2023-11-21T13:21:22;27.60;19.50
34815;DHT22;21030;53.912;15.214;2023-11-21T13:23:50;28.20;19.20
34815;DHT22;21030;53.912;15.214;2023-11-21T13:26:19;27.70;19.20
34815;DHT22;21030;53.912;15.214;2023-11-21T13:28:48;28.10;19.50
34815;DHT22;21030;53.912;15.214;2023-11-21T13:31:15;26.60;19.50
34815;DHT22;21030;53.912;15.214;2023-11-21T13:33:58;27.40;19.50
34815;DHT22;21030;53.912;15.214;2023-11-21T13:36:32;26.20;18.80
34815;DHT22;21030;53.912;15.214;2023-11-21T13:39:03;26.50;19.40
34815;DHT22;21030;53.912;15.214;2023-11-21T13:41:42;26.90;20.10
34815;DHT22;21030;53.912;15.214;2023-11-21T13:44:09;26.60;20.20
34815;DHT22;21030;53.912;15.214;2023-11-21T13:46:45;28.10;19.60
34815;DHT22;21030;53.912;15.214;2023-11-21T13:49:13;28.20;18.70
34815;DHT22;21030;53.912;15.214;2023-11-21T13:51:42;28.30;18.70
34815;DHT22;21030;53.912;15.214;2023-11-21T13:54:15;27.90;18.80
34815;DHT22;21030;53.912;15.214;2023-11-21T13:56:49;28.80;19.00
34815;DHT22;21030;53.912;15.214;2023-11-21T13:59:17;30.00;18.70
34815;DHT22;21030;53.912;15.214;2023-11-21T14:01:55;30.40;18.40
34815;DHT22;21030;53.912;15.214;2023-11-21T14:04:25;30.80;18.20
34815;DHT22;21030;53.912;15.214;2023-11-21T14:07:14;30.30;18.10
34815;DHT22;21030;53.912;15.214;2023-11-21T14:09:52;29.00;18.30
34815;DHT22;21030;53.912;15.214;2023-11-21T14:12:19;30.00;18.50
34815;DHT22;21030;53.912;15.214;2023-11-21T14:14:46;29.90;18.50
34815;DHT22;21030;53.912;15.214;2023-11-21T14:17:14;29.70;18.10
34815;DHT22;21030;53.912;15.214;2023-11-21T14:19:41;30.50;18.30
34815;DHT22;21030;53.912;15.214;2023-11-21T14:22:11;30.50;17.90
34815;DHT22;21030;53.912;15.214;2023-11-21T14:24:41;30.80;18.20
34815;DHT22;21030;53.912;15.214;2023-11-21T14:27:13;31.40;18.00
34815;DHT22;21030;53.912;15.214;2023-11-21T14:29:42;31.60;17.80
34815;DHT22;21030;53.912;15.214;2023-11-21T14:32:11;31.90;17.70
34815;DHT22;21030;53.912;15.214;2023-11-21T14:34:39;31.90;17.70
34815;DHT22;21030;53.912;15.214;2023-11-21T14:37:07;32.00;17.60
34815;DHT22;21030;53.912;15.214;2023-11-21T14:39:34;32.00;17.50
34815;DHT22;21030;53.912;15.214;2023-11-21T14:42:07;32.00;17.40
34815;DHT22;21030;53.912;15.214;2023-11-21T14:44:34;31.80;17.40
34815;DHT22;21030;53.912;15.214;2023-11-21T14:47:05;31.90;17.50
34815;DHT22;21030;53.912;15.214;2023-11-21T14:49:40;31.90;17.50
34815;DHT22;21030;53.912;15.214;2023-11-21T14:52:22;32.00;17.50
34815;DHT22;21030;53.912;15.214;2023-11-21T14:55:09;32.00;17.60
34815;DHT22;21030;53.912;15.214;2023-11-21T14:57:48;32.10;17.60
34815;DHT22;21030;53.912;15.214;2023-11-21T15:00:21;32.00;18.00
34815;DHT22;21030;53.912;15.214;2023-11-21T15:03:04;32.10;17.70
34815;DHT22;21030;53.912;15.214;2023-11-21T15:05:32;32.00;17.70
34815;DHT22;21030;53.912;15.214;2023-11-21T15:08:02;31.90;17.90
34815;DHT22;21030;53.912;15.214;2023-11-21T15:10:48;31.90;17.80
34815;DHT22;21030;53.912;15.214;2023-11-21T15:13:22;31.80;17.80
34815;DHT22;21030;53.912;15.214;2023-11-21T15:15:57;31.80;18.00
34815;DHT22;21030;53.912;15.214;2023-11-21T15:18:33;31.70;18.00
34815;DHT22;21030;53.912;15.214;2023-11-21T15:21:02;31.20;18.30
34815;DHT22;21030;53.912;15.214;2023-11-21T15:23:36;30.70;18.40
34815;DHT22;21030;53.912;15.214;2023-11-21T15:26:04;30.40;18.50
34815;DHT22;21030;53.912;15.214;2023-11-21T15:28:36;28.90;18.40
34815;DHT22;21030;53.912;15.214;2023-11-21T15:31:04;28.50;18.90
34815;DHT22;21030;53.912;15.214;2023-11-21T15:33:31;27.70;18.90
34815;DHT22;21030;53.912;15.214;2023-11-21T15:35:58;28.30;19.10
34815;DHT22;21030;53.912;15.214;2023-11-21T15:38:25;27.40;19.20